createdAt,value
2023-01-05T00:01:53.115Z,6.64
2023-01-05T00:04:20.618Z,6.67
2023-01-05T00:06:47.514Z,6.52
2023-01-05T00:09:17.581Z,6.44
2023-01-05T00:12:02.903Z,6.24
2023-01-05T00:14:50.366Z,6.19
2023-01-05T00:17:38.941Z,6.41
2023-01-05T00:20:30.129Z,6.42
2023-01-05T00:22:57.051Z,6.29
2023-01-05T00:25:30.090Z,6.22
2023-01-05T00:27:59.017Z,6.10
2023-01-05T00:30:32.677Z,6.05
2023-01-05T00:32:59.708Z,6.01
2023-01-05T00:35:26.691Z,6.04
2023-01-05T00:37:54.979Z,6.18
2023-01-05T00:40:25.460Z,6.38
2023-01-05T00:42:54.937Z,6.37
2023-01-05T00:45:22.279Z,5.85
2023-01-05T00:47:51.846Z,5.40
2023-01-05T00:50:19.772Z,5.48
2023-01-05T00:52:47.187Z,5.46
2023-01-05T00:55:14.859Z,5.62
2023-01-05T00:57:42.214Z,5.56
2023-01-05T01:00:17.342Z,6.02
2023-01-05T01:02:44.562Z,6.21
2023-01-05T01:05:11.880Z,5.99
2023-01-05T01:07:39.007Z,5.76
2023-01-05T01:10:07.024Z,5.63
2023-01-05T01:12:34.073Z,5.50
2023-01-05T01:15:01.063Z,5.55
2023-01-05T01:17:28.345Z,5.73
2023-01-05T01:19:55.238Z,5.68
2023-01-05T01:22:22.245Z,5.57
2023-01-05T01:24:49.267Z,5.81
2023-01-05T01:27:16.243Z,5.83
2023-01-05T01:29:43.144Z,5.91
2023-01-05T01:32:10.203Z,5.68
2023-01-05T01:34:37.190Z,5.70
2023-01-05T01:37:04.182Z,5.58
2023-01-05T01:39:37.010Z,5.79
2023-01-05T01:42:15.017Z,5.68
2023-01-05T01:45:02.658Z,5.77
2023-01-05T01:47:45.900Z,5.86
2023-01-05T01:50:30.916Z,5.87
2023-01-05T01:53:08.259Z,5.93
2023-01-05T01:55:36.979Z,5.82
2023-01-05T01:58:07.418Z,5.90
2023-01-05T02:00:34.471Z,5.97
2023-01-05T02:03:01.386Z,5.94
2023-01-05T02:05:32.832Z,6.02
2023-01-05T02:07:59.843Z,6.11
2023-01-05T02:10:57.489Z,6.24
2023-01-05T02:13:38.474Z,6.07
2023-01-05T02:16:34.615Z,6.11
2023-01-05T02:19:24.058Z,6.07
2023-01-05T02:22:19.907Z,6.00
2023-01-05T02:24:58.629Z,5.97
2023-01-05T02:27:47.314Z,6.17
2023-01-05T02:30:44.560Z,6.66
2023-01-05T02:33:54.900Z,6.66
2023-01-05T02:36:44.157Z,6.56
2023-01-05T02:39:16.778Z,6.71
2023-01-05T02:41:49.294Z,6.44
2023-01-05T02:44:18.929Z,6.52
2023-01-05T02:47:28.240Z,6.82
2023-01-05T02:50:04.941Z,6.72
2023-01-05T02:52:54.637Z,6.85
2023-01-05T02:55:32.384Z,6.91
2023-01-05T02:58:16.670Z,6.22
2023-01-05T03:00:50.818Z,6.83
2023-01-05T03:03:34.323Z,6.34
2023-01-05T03:06:47.283Z,6.36
2023-01-05T03:09:20.230Z,6.31
2023-01-05T03:12:28.502Z,6.63
2023-01-05T03:15:12.577Z,7.01
2023-01-05T03:17:51.401Z,6.58
2023-01-05T03:20:24.682Z,6.92
2023-01-05T03:23:15.074Z,6.93
2023-01-05T03:26:00.960Z,6.79
2023-01-05T03:28:58.083Z,6.98
2023-01-05T03:32:29.102Z,6.97
2023-01-05T03:35:29.771Z,7.27
2023-01-05T03:38:00.563Z,7.30
2023-01-05T03:40:31.178Z,7.20
2023-01-05T03:42:59.152Z,7.06
2023-01-05T03:45:35.427Z,7.08
2023-01-05T03:48:03.017Z,7.07
2023-01-05T03:50:30.384Z,7.20
2023-01-05T03:52:58.096Z,6.92
2023-01-05T03:55:29.795Z,6.92
2023-01-05T03:57:56.852Z,7.07
2023-01-05T04:00:25.683Z,7.00
2023-01-05T04:03:00.278Z,6.83
2023-01-05T04:05:27.627Z,6.54
2023-01-05T04:07:54.632Z,6.71
2023-01-05T04:10:22.228Z,6.80
2023-01-05T04:12:49.807Z,6.99
2023-01-05T04:15:18.492Z,6.87
2023-01-05T04:17:46.003Z,6.85
2023-01-05T04:20:13.486Z,6.64
2023-01-05T04:22:41.119Z,6.73
2023-01-05T04:25:09.575Z,6.35
2023-01-05T04:27:37.153Z,6.21
2023-01-05T04:30:06.473Z,6.31
2023-01-05T04:32:34.343Z,6.34
2023-01-05T04:35:06.999Z,6.02
2023-01-05T04:37:40.481Z,5.85
2023-01-05T04:40:09.113Z,5.58
2023-01-05T04:42:44.125Z,5.57
2023-01-05T04:45:11.446Z,5.51
2023-01-05T04:47:38.531Z,5.47
2023-01-05T04:50:06.532Z,5.52
2023-01-05T04:52:33.466Z,5.49
2023-01-05T04:55:02.339Z,5.58
2023-01-05T04:57:30.499Z,5.62
2023-01-05T04:59:58.188Z,5.62
2023-01-05T05:02:25.415Z,5.58
2023-01-05T05:04:52.640Z,5.63
2023-01-05T05:07:21.689Z,5.91
2023-01-05T05:09:48.711Z,5.87
2023-01-05T05:12:20.452Z,6.13
2023-01-05T05:14:50.739Z,6.11
2023-01-05T05:17:18.268Z,6.19
2023-01-05T05:19:45.222Z,6.27
2023-01-05T05:22:12.990Z,6.58
2023-01-05T05:24:39.928Z,6.34
2023-01-05T05:27:08.457Z,6.74
2023-01-05T05:29:35.476Z,6.62
2023-01-05T05:32:02.293Z,6.70
2023-01-05T05:34:29.294Z,6.58
2023-01-05T05:36:56.197Z,6.55
2023-01-05T05:39:23.036Z,6.73
2023-01-05T05:41:49.962Z,6.62
2023-01-05T05:44:17.013Z,6.72
2023-01-05T05:46:44.052Z,6.74
2023-01-05T05:49:10.986Z,6.58
2023-01-05T05:51:37.889Z,6.67
2023-01-05T05:54:04.938Z,6.88
2023-01-05T05:56:31.897Z,6.85
2023-01-05T05:59:01.573Z,6.82
2023-01-05T06:01:29.356Z,6.87
2023-01-05T06:03:56.437Z,6.83
2023-01-05T06:06:23.355Z,6.83
2023-01-05T06:08:51.140Z,6.75
2023-01-05T06:11:18.170Z,6.96
2023-01-05T06:13:45.291Z,6.82
2023-01-05T06:16:12.212Z,7.09
2023-01-05T06:18:39.163Z,6.92
2023-01-05T06:21:06.399Z,6.90
2023-01-05T06:23:33.326Z,6.91
2023-01-05T06:26:00.222Z,7.00
2023-01-05T06:28:27.149Z,6.99
2023-01-05T06:30:54.055Z,7.06
2023-01-05T06:33:20.930Z,7.13
2023-01-05T06:35:47.927Z,7.22
2023-01-05T06:38:16.254Z,7.31
2023-01-05T06:40:44.705Z,7.36
2023-01-05T06:43:12.320Z,7.09
2023-01-05T06:45:39.380Z,7.33
2023-01-05T06:48:06.630Z,7.29
2023-01-05T06:50:33.486Z,6.98
2023-01-05T06:53:00.675Z,7.05
2023-01-05T06:55:27.821Z,7.30
2023-01-05T06:58:00.524Z,7.57
2023-01-05T07:00:28.601Z,7.51
2023-01-05T07:02:55.641Z,7.52
2023-01-05T07:05:24.758Z,7.52
2023-01-05T07:07:51.912Z,7.44
2023-01-05T07:10:18.879Z,7.32
2023-01-05T07:12:45.763Z,6.94
2023-01-05T07:15:12.717Z,7.41
2023-01-05T07:17:39.876Z,7.44
2023-01-05T07:20:08.118Z,7.14
2023-01-05T07:22:35.385Z,6.83
2023-01-05T07:25:02.359Z,7.33
2023-01-05T07:27:29.267Z,7.62
2023-01-05T07:29:56.215Z,7.77
2023-01-05T07:32:23.200Z,7.57
2023-01-05T07:34:55.252Z,7.96
2023-01-05T07:37:25.047Z,8.24
2023-01-05T07:39:52.611Z,8.41
2023-01-05T07:42:19.689Z,8.44
2023-01-05T07:44:48.438Z,8.24
2023-01-05T07:47:15.296Z,8.65
2023-01-05T07:49:42.224Z,8.37
2023-01-05T07:52:09.336Z,8.71
2023-01-05T07:54:36.306Z,8.59
2023-01-05T07:57:03.588Z,8.67
2023-01-05T07:59:30.613Z,8.38
2023-01-05T08:01:58.724Z,8.03
2023-01-05T08:04:25.914Z,8.17
2023-01-05T08:06:52.945Z,8.32
2023-01-05T08:09:38.457Z,8.74
2023-01-05T08:12:05.757Z,8.71
2023-01-05T08:14:32.933Z,8.27
2023-01-05T08:16:59.950Z,8.50
2023-01-05T08:19:27.058Z,8.61
2023-01-05T08:21:53.986Z,8.45
2023-01-05T08:24:20.873Z,8.79
2023-01-05T08:26:50.796Z,8.87
2023-01-05T08:29:17.750Z,8.71
2023-01-05T08:31:44.704Z,8.34
2023-01-05T08:34:11.621Z,8.14
2023-01-05T08:36:40.132Z,8.96
2023-01-05T08:39:07.487Z,8.64
2023-01-05T08:41:36.669Z,9.06
2023-01-05T08:44:10.740Z,9.32
2023-01-05T08:46:37.823Z,8.98
2023-01-05T08:49:07.642Z,9.39
2023-01-05T08:51:34.672Z,8.87
2023-01-05T08:54:01.695Z,9.56
2023-01-05T08:56:34.619Z,9.25
2023-01-05T08:59:05.242Z,8.97
2023-01-05T09:01:32.259Z,8.82
2023-01-05T09:03:59.283Z,9.08
2023-01-05T09:06:26.215Z,9.35
2023-01-05T09:08:53.160Z,9.26
2023-01-05T09:11:22.457Z,9.53
2023-01-05T09:13:54.836Z,9.67
2023-01-05T09:16:56.918Z,10.18
2023-01-05T09:19:12.089Z,9.59
2023-01-05T09:21:41.759Z,9.92
2023-01-05T09:24:13.037Z,10.42
2023-01-05T09:26:41.322Z,10.49
2023-01-05T09:29:09.196Z,10.55
2023-01-05T09:31:36.172Z,10.73
2023-01-05T09:34:04.245Z,10.35
2023-01-05T09:36:32.452Z,10.17
2023-01-05T09:38:59.547Z,11.01
2023-01-05T09:41:58.805Z,11.31
2023-01-05T09:44:25.664Z,11.32
2023-01-05T10:17:41.750Z,11.02
2023-01-05T10:20:50.034Z,11.49
2023-01-05T10:23:24.639Z,11.39
2023-01-05T10:26:08.056Z,11.87
2023-01-05T10:28:47.109Z,12.03
2023-01-05T10:31:14.172Z,12.05
2023-01-05T10:33:56.675Z,12.25
2023-01-05T10:37:13.639Z,11.93
2023-01-05T10:40:21.486Z,11.82
2023-01-05T10:43:09.259Z,12.06
2023-01-05T10:45:57.264Z,12.24
2023-01-05T10:48:31.714Z,12.36
2023-01-05T10:50:58.966Z,12.16
2023-01-05T10:53:29.158Z,12.29
2023-01-05T10:56:06.527Z,11.93
2023-01-05T10:58:36.063Z,12.35
2023-01-05T11:01:05.689Z,12.37
2023-01-05T11:06:35.423Z,11.89
2023-01-05T11:09:24.006Z,11.87
2023-01-05T11:12:02.355Z,11.64
2023-01-05T11:14:33.486Z,11.77
2023-01-05T11:17:06.981Z,12.27
2023-01-05T11:19:43.884Z,12.54
2023-01-05T11:22:36.879Z,11.93
2023-01-05T11:25:27.568Z,12.27
2023-01-05T11:28:09.315Z,12.01
2023-01-05T11:30:37.709Z,12.17
2023-01-05T11:33:16.252Z,12.61
2023-01-05T11:35:46.858Z,12.06
2023-01-05T11:38:26.203Z,12.13
2023-01-05T11:40:56.452Z,12.29
2023-01-05T11:43:27.071Z,12.49
2023-01-05T11:45:57.889Z,12.17
2023-01-05T11:48:29.025Z,11.63
2023-01-05T11:50:58.356Z,11.50
2023-01-05T11:53:36.391Z,11.27
2023-01-05T11:56:13.624Z,11.57
2023-01-05T11:58:46.858Z,11.56
2023-01-05T12:01:32.965Z,11.87
2023-01-05T12:04:21.318Z,11.52
2023-01-05T12:07:00.205Z,11.89
2023-01-05T12:09:39.681Z,11.89
2023-01-05T12:13:02.236Z,11.97
2023-01-05T12:15:34.953Z,12.15
2023-01-05T12:18:38.936Z,12.32
2023-01-05T12:21:15.108Z,12.08
2023-01-05T12:23:47.420Z,11.71
2023-01-05T12:26:38.570Z,11.82
2023-01-05T12:35:39.026Z,11.99
2023-01-05T12:38:30.052Z,11.73
2023-01-05T12:41:05.791Z,11.68
2023-01-05T12:43:51.283Z,12.09
2023-01-05T12:46:33.346Z,12.07
2023-01-05T12:49:06.150Z,12.05
2023-01-05T12:51:36.445Z,11.93
2023-01-05T12:54:10.702Z,11.95
2023-01-05T12:57:09.134Z,12.06
2023-01-05T12:59:45.042Z,11.99
2023-01-05T13:02:33.635Z,12.06
2023-01-05T13:05:18.946Z,11.96
2023-01-05T13:07:54.302Z,11.84
2023-01-05T13:10:44.605Z,11.59
2023-01-05T13:13:14.957Z,11.75
2023-01-05T13:15:54.257Z,12.02
2023-01-05T13:18:24.802Z,12.14
2023-01-05T13:20:57.903Z,11.73
2023-01-05T13:23:27.441Z,11.55
2023-01-05T13:26:03.200Z,11.61
2023-01-05T13:28:31.972Z,11.75
2023-01-05T13:31:09.073Z,11.71
2023-01-05T13:33:39.565Z,12.05
2023-01-05T13:36:24.929Z,11.59
2023-01-05T13:39:07.050Z,11.61
2023-01-05T13:41:52.473Z,11.66
2023-01-05T13:44:49.339Z,11.96
2023-01-05T13:47:16.658Z,11.84
2023-01-05T13:50:21.920Z,11.53
2023-01-05T13:52:57.544Z,11.56
2023-01-05T13:55:26.824Z,11.28
2023-01-05T13:57:57.866Z,11.36
2023-01-05T14:00:40.057Z,11.23
2023-01-05T14:03:20.898Z,11.58
2023-01-05T14:05:57.605Z,11.24
2023-01-05T14:08:29.801Z,11.58
2023-01-05T14:11:21.310Z,11.83
2023-01-05T14:13:59.764Z,11.50
2023-01-05T14:16:38.748Z,11.49
2023-01-05T14:19:46.816Z,11.43
2023-01-05T14:22:19.315Z,11.39
2023-01-05T14:24:49.456Z,10.63
2023-01-05T14:27:17.803Z,10.86
2023-01-05T14:29:44.847Z,10.61
2023-01-05T14:32:22.021Z,10.26
2023-01-05T14:34:52.722Z,10.63
2023-01-05T14:37:29.683Z,10.49
2023-01-05T14:40:04.145Z,10.24
2023-01-05T14:42:39.970Z,10.51
2023-01-05T14:45:20.473Z,10.15
2023-01-05T14:47:49.982Z,9.74
2023-01-05T14:50:39.353Z,9.82
2023-01-05T14:53:43.420Z,9.80
2023-01-05T14:56:16.958Z,9.75
2023-01-05T14:58:43.968Z,9.86
2023-01-05T15:01:17.315Z,9.73
2023-01-05T15:03:55.424Z,9.45
2023-01-05T15:06:38.520Z,9.52
2023-01-05T15:09:30.510Z,9.68
2023-01-05T15:12:32.637Z,9.77
2023-01-05T15:15:20.329Z,9.62
2023-01-05T15:18:22.533Z,9.40
2023-01-05T15:20:52.336Z,9.34
2023-01-05T15:23:36.498Z,9.14
2023-01-05T15:26:40.314Z,8.76
2023-01-05T15:29:46.372Z,8.76
2023-01-05T15:32:14.457Z,8.77
2023-01-05T15:34:47.569Z,8.72
2023-01-05T15:37:31.060Z,8.49
2023-01-05T15:40:04.674Z,8.36
2023-01-05T15:42:42.353Z,8.56
2023-01-05T15:45:35.240Z,8.75
2023-01-05T15:48:13.187Z,8.82
2023-01-05T15:50:53.420Z,8.81
2023-01-05T15:53:30.889Z,8.65
2023-01-05T15:55:58.739Z,8.70
2023-01-05T15:58:29.410Z,8.72
2023-01-05T16:01:05.167Z,8.94
2023-01-05T16:03:34.886Z,9.16
2023-01-05T16:06:09.087Z,9.31
2023-01-05T16:08:42.082Z,9.22
2023-01-05T16:11:11.294Z,9.29
2023-01-05T16:14:02.391Z,9.18
2023-01-05T16:16:51.946Z,9.15
2023-01-05T16:19:45.109Z,9.57
2023-01-05T16:22:21.590Z,9.73
2023-01-05T16:24:57.265Z,9.91
2023-01-05T16:27:25.300Z,9.61
2023-01-05T16:29:52.286Z,9.61
2023-01-05T16:32:30.012Z,9.36
2023-01-05T16:35:35.842Z,9.51
2023-01-05T16:38:08.899Z,9.37
2023-01-05T16:41:05.034Z,9.45
2023-01-05T16:43:42.526Z,9.20
2023-01-05T16:46:20.518Z,8.92
2023-01-05T16:48:52.027Z,8.72
2023-01-05T16:51:22.133Z,8.70
2023-01-05T16:53:57.223Z,8.62
2023-01-05T16:56:33.187Z,8.80
2023-01-05T16:59:24.249Z,9.13
2023-01-05T17:01:52.218Z,9.00
2023-01-05T17:04:19.146Z,9.07
2023-01-05T17:06:48.584Z,8.38
2023-01-05T17:09:27.766Z,8.17
2023-01-05T17:11:55.289Z,8.26
2023-01-05T17:14:23.945Z,8.58
2023-01-05T17:16:51.424Z,8.90
2023-01-05T17:19:20.986Z,8.81
2023-01-05T17:22:10.315Z,8.52
2023-01-05T17:24:39.229Z,8.55
2023-01-05T17:27:06.241Z,8.31
2023-01-05T17:29:33.552Z,8.41
2023-01-05T17:32:00.436Z,8.26
2023-01-05T17:34:27.454Z,8.59
2023-01-05T17:36:57.488Z,8.69
2023-01-05T17:39:24.535Z,9.14
2023-01-05T17:41:51.915Z,8.48
2023-01-05T17:44:19.573Z,8.74
2023-01-05T17:46:47.812Z,8.73
2023-01-05T17:49:17.991Z,8.47
2023-01-05T17:51:45.036Z,8.75
2023-01-05T17:54:12.648Z,8.96
2023-01-05T17:56:39.733Z,8.95
2023-01-05T17:59:07.209Z,8.81
2023-01-05T18:01:34.467Z,8.69
2023-01-05T18:04:02.193Z,8.37
2023-01-05T18:06:29.256Z,7.89
2023-01-05T18:08:57.671Z,7.89
2023-01-05T18:11:24.745Z,7.86
2023-01-05T18:13:51.706Z,7.84
2023-01-05T18:16:18.695Z,7.76
2023-01-05T18:18:45.726Z,7.64
2023-01-05T18:21:12.695Z,7.64
2023-01-05T18:23:39.712Z,7.95
2023-01-05T18:26:08.975Z,7.93
2023-01-05T18:28:37.345Z,7.96
2023-01-05T18:31:15.351Z,8.23
2023-01-05T18:33:42.579Z,8.43
2023-01-05T18:36:13.991Z,8.63
2023-01-05T18:38:41.796Z,8.44
2023-01-05T18:41:09.396Z,8.22
2023-01-05T18:43:36.470Z,8.19
2023-01-05T18:46:04.519Z,8.12
2023-01-05T18:48:31.627Z,8.36
2023-01-05T18:50:58.755Z,8.30
2023-01-05T18:53:25.876Z,8.56
2023-01-05T18:55:53.223Z,7.97
2023-01-05T18:58:20.101Z,8.28
2023-01-05T19:00:47.426Z,8.17
2023-01-05T19:03:14.579Z,7.81
2023-01-05T19:05:43.822Z,7.90
2023-01-05T19:08:12.457Z,7.93
2023-01-05T19:10:40.351Z,7.64
2023-01-05T19:13:08.125Z,7.18
2023-01-05T19:15:36.802Z,7.31
2023-01-05T19:18:04.004Z,7.00
2023-01-05T19:20:31.920Z,6.72
2023-01-05T19:23:00.307Z,6.84
2023-01-05T19:25:27.762Z,6.96
2023-01-05T19:27:54.875Z,7.08
2023-01-05T19:30:23.849Z,7.23
2023-01-05T19:32:51.556Z,7.25
2023-01-05T19:35:18.775Z,7.24
2023-01-05T19:37:45.829Z,7.16
2023-01-05T19:40:13.085Z,7.29
2023-01-05T19:42:40.118Z,7.40
2023-01-05T19:45:09.545Z,7.47
2023-01-05T19:47:40.861Z,7.52
2023-01-05T19:50:10.275Z,7.75
2023-01-05T19:52:38.465Z,7.60
2023-01-05T19:55:06.351Z,7.50
2023-01-05T19:57:33.514Z,7.77
2023-01-05T20:00:00.431Z,7.51
2023-01-05T20:02:27.465Z,7.42
2023-01-05T20:04:54.635Z,7.27
2023-01-05T20:07:22.538Z,6.93
2023-01-05T20:09:51.413Z,6.86
2023-01-05T20:12:18.474Z,6.70
2023-01-05T20:14:45.578Z,6.82
2023-01-05T20:17:13.410Z,6.89
2023-01-05T20:19:41.087Z,6.92
2023-01-05T20:22:13.926Z,7.20
2023-01-05T20:24:42.278Z,7.37
2023-01-05T20:27:12.660Z,7.18
2023-01-05T20:29:40.856Z,6.94
2023-01-05T20:32:28.192Z,7.03
2023-01-05T20:35:00.386Z,6.99
2023-01-05T20:37:29.377Z,6.97
2023-01-05T20:39:58.505Z,7.14
2023-01-05T20:42:27.024Z,7.28
2023-01-05T20:44:54.301Z,7.32
2023-01-05T20:47:21.292Z,7.41
2023-01-05T20:49:48.520Z,7.56
2023-01-05T20:52:17.799Z,7.57
2023-01-05T20:54:45.211Z,7.65
2023-01-05T20:57:12.496Z,7.83
2023-01-05T20:59:40.978Z,7.84
2023-01-05T21:02:22.471Z,8.15
2023-01-05T21:04:50.936Z,8.23
2023-01-05T21:07:18.042Z,8.30
2023-01-05T21:09:44.968Z,8.37
2023-01-05T21:12:11.960Z,8.39
2023-01-05T21:14:38.967Z,8.34
2023-01-05T21:17:06.099Z,8.41
2023-01-05T21:19:34.071Z,8.30
2023-01-05T21:22:01.072Z,8.27
2023-01-05T21:24:28.397Z,8.27
2023-01-05T21:26:55.424Z,8.42
2023-01-05T21:29:26.162Z,8.31
2023-01-05T21:31:56.570Z,8.32
2023-01-05T21:34:23.928Z,8.40
2023-01-05T21:36:51.104Z,8.31
2023-01-05T21:39:21.632Z,8.37
2023-01-05T21:42:09.149Z,8.32
2023-01-05T21:44:36.516Z,8.43
2023-01-05T21:47:05.828Z,8.49
2023-01-05T21:49:34.914Z,8.53
2023-01-05T21:52:20.305Z,8.48
2023-01-05T21:55:05.975Z,8.38
2023-01-05T21:57:32.969Z,8.37
2023-01-05T21:59:59.927Z,8.29
2023-01-05T22:02:26.893Z,8.25
2023-01-05T22:04:53.831Z,8.23
2023-01-05T22:07:20.800Z,8.22
2023-01-05T22:09:47.813Z,8.19
2023-01-05T22:12:14.793Z,8.26
2023-01-05T22:14:41.780Z,8.14
2023-01-05T22:17:09.904Z,8.20
2023-01-05T22:19:37.072Z,8.16
2023-01-05T22:22:04.649Z,8.10
2023-01-05T22:24:31.582Z,8.09
2023-01-05T22:26:58.659Z,8.09
2023-01-05T22:29:25.742Z,8.16
2023-01-05T22:31:52.813Z,8.09
2023-01-05T22:34:20.008Z,8.04
2023-01-05T22:36:47.108Z,8.04
2023-01-05T22:39:14.143Z,7.97
2023-01-05T22:41:41.324Z,7.92
2023-01-05T22:44:08.594Z,7.94
2023-01-05T22:46:35.843Z,7.95
2023-01-05T22:49:03.012Z,7.95
2023-01-05T22:51:33.625Z,7.91
2023-01-05T22:54:01.184Z,7.93
2023-01-05T22:56:31.975Z,7.91
2023-01-05T22:58:59.529Z,7.87
2023-01-05T23:01:38.695Z,7.86
2023-01-05T23:04:07.210Z,7.91
2023-01-05T23:06:35.139Z,7.91
2023-01-05T23:09:04.319Z,7.92
2023-01-05T23:11:37.661Z,7.99
2023-01-05T23:14:07.280Z,7.98
2023-01-05T23:16:35.486Z,7.93
2023-01-05T23:19:05.656Z,7.98
2023-01-05T23:21:33.519Z,7.91
2023-01-05T23:24:00.770Z,7.94
2023-01-05T23:26:28.246Z,7.96
2023-01-05T23:28:56.231Z,7.92
2023-01-05T23:31:23.769Z,7.89
2023-01-05T23:33:51.220Z,7.97
2023-01-05T23:36:20.094Z,7.96
2023-01-05T23:38:47.283Z,8.03
2023-01-05T23:41:15.845Z,8.02
2023-01-05T23:43:45.284Z,8.07
2023-01-05T23:46:20.807Z,8.07
2023-01-05T23:48:49.077Z,8.08
2023-01-05T23:51:17.322Z,8.02
2023-01-05T23:53:50.326Z,8.03
2023-01-05T23:56:20.247Z,7.99
2023-01-05T23:58:48.271Z,7.94
